Terminal Aerodrome Forecast
Issued by NWS Sterling, VA

Current Version | Previous Version | Text Only | Print | Product List | Glossary Off
Versions: 1 2 3 4 5 6 7 8 9 10 11 12 13 14 15 16 17 18 19 20 21

000
FTUS41 KLWX 161120
TAFIAD
TAF
KIAD 161120Z 1612/1718 33011KT P6SM OVC140
     FM161500 33015G24KT P6SM BKN040
     FM161700 33015G24KT P6SM SCT040
     FM162200 33011KT P6SM FEW250
     FM170400 34005KT P6SM SKC=

USA.gov is the U.S. government's official web portal to all federal, state and local government web resources and services.